sensor_id;sensor_type;location;lat;lon;timestamp;P1;durP1;ratioP1;P2;durP2;ratioP2
23113;SDS011;11726;50.122;8.832;2023-02-01T00:00:29;5.95;;;4.43;;
23113;SDS011;11726;50.122;8.832;2023-02-01T00:02:55;7.40;;;4.43;;
23113;SDS011;11726;50.122;8.832;2023-02-01T00:05:22;7.80;;;4.93;;
23113;SDS011;11726;50.122;8.832;2023-02-01T00:07:48;5.78;;;4.35;;
23113;SDS011;11726;50.122;8.832;2023-02-01T00:10:15;5.95;;;4.60;;
23113;SDS011;11726;50.122;8.832;2023-02-01T00:12:42;5.55;;;4.30;;
23113;SDS011;11726;50.122;8.832;2023-02-01T00:15:09;4.95;;;4.15;;
23113;SDS011;11726;50.122;8.832;2023-02-01T00:17:36;7.65;;;4.22;;
23113;SDS011;11726;50.122;8.832;2023-02-01T00:20:03;6.90;;;3.92;;
23113;SDS011;11726;50.122;8.832;2023-02-01T00:22:30;4.38;;;3.80;;
23113;SDS011;11726;50.122;8.832;2023-02-01T00:24:57;5.07;;;3.83;;
23113;SDS011;11726;50.122;8.832;2023-02-01T00:27:23;4.82;;;3.90;;
23113;SDS011;11726;50.122;8.832;2023-02-01T00:29:50;8.15;;;4.07;;
23113;SDS011;11726;50.122;8.832;2023-02-01T00:32:16;4.35;;;3.95;;
23113;SDS011;11726;50.122;8.832;2023-02-01T00:34:43;4.80;;;3.45;;
23113;SDS011;11726;50.122;8.832;2023-02-01T00:37:10;4.45;;;3.60;;
23113;SDS011;11726;50.122;8.832;2023-02-01T00:39:36;5.75;;;3.72;;
23113;SDS011;11726;50.122;8.832;2023-02-01T00:42:03;4.35;;;3.83;;
23113;SDS011;11726;50.122;8.832;2023-02-01T00:44:29;6.63;;;3.85;;
23113;SDS011;11726;50.122;8.832;2023-02-01T00:46:59;4.65;;;3.80;;
23113;SDS011;11726;50.122;8.832;2023-02-01T00:49:27;5.03;;;3.80;;
23113;SDS011;11726;50.122;8.832;2023-02-01T00:51:54;4.85;;;3.80;;
23113;SDS011;11726;50.122;8.832;2023-02-01T00:54:20;6.35;;;4.10;;
23113;SDS011;11726;50.122;8.832;2023-02-01T00:56:47;5.97;;;4.25;;
23113;SDS011;11726;50.122;8.832;2023-02-01T00:59:14;7.18;;;4.07;;
23113;SDS011;11726;50.122;8.832;2023-02-01T01:01:40;5.28;;;3.75;;
23113;SDS011;11726;50.122;8.832;2023-02-01T01:04:07;5.78;;;4.18;;
23113;SDS011;11726;50.122;8.832;2023-02-01T01:06:34;6.18;;;3.90;;
23113;SDS011;11726;50.122;8.832;2023-02-01T01:09:02;5.25;;;3.95;;
23113;SDS011;11726;50.122;8.832;2023-02-01T01:11:32;5.45;;;3.95;;
23113;SDS011;11726;50.122;8.832;2023-02-01T01:14:01;4.47;;;3.67;;
23113;SDS011;11726;50.122;8.832;2023-02-01T01:16:29;6.28;;;3.70;;
23113;SDS011;11726;50.122;8.832;2023-02-01T01:18:57;6.05;;;4.10;;
23113;SDS011;11726;50.122;8.832;2023-02-01T01:21:24;4.20;;;3.80;;
23113;SDS011;11726;50.122;8.832;2023-02-01T01:23:51;7.72;;;4.75;;
23113;SDS011;11726;50.122;8.832;2023-02-01T01:26:22;5.88;;;4.38;;
23113;SDS011;11726;50.122;8.832;2023-02-01T01:28:57;5.68;;;4.55;;
23113;SDS011;11726;50.122;8.832;2023-02-01T01:31:25;5.43;;;4.07;;
23113;SDS011;11726;50.122;8.832;2023-02-01T01:33:53;5.95;;;4.78;;
23113;SDS011;11726;50.122;8.832;2023-02-01T01:36:21;5.80;;;4.43;;
23113;SDS011;11726;50.122;8.832;2023-02-01T01:38:48;5.18;;;4.68;;
23113;SDS011;11726;50.122;8.832;2023-02-01T01:41:16;7.28;;;5.35;;
23113;SDS011;11726;50.122;8.832;2023-02-01T01:43:50;7.28;;;5.28;;
23113;SDS011;11726;50.122;8.832;2023-02-01T01:49:17;7.95;;;4.90;;
23113;SDS011;11726;50.122;8.832;2023-02-01T01:51:49;7.57;;;4.63;;
23113;SDS011;11726;50.122;8.832;2023-02-01T01:54:21;8.93;;;5.18;;
23113;SDS011;11726;50.122;8.832;2023-02-01T01:56:55;6.83;;;5.10;;
23113;SDS011;11726;50.122;8.832;2023-02-01T01:59:26;7.45;;;5.13;;
23113;SDS011;11726;50.122;8.832;2023-02-01T02:01:53;7.03;;;5.85;;
23113;SDS011;11726;50.122;8.832;2023-02-01T02:04:20;8.48;;;6.05;;
23113;SDS011;11726;50.122;8.832;2023-02-01T02:06:59;11.57;;;5.85;;
23113;SDS011;11726;50.122;8.832;2023-02-01T02:09:29;7.22;;;5.53;;
23113;SDS011;11726;50.122;8.832;2023-02-01T02:11:56;7.78;;;6.15;;
23113;SDS011;11726;50.122;8.832;2023-02-01T02:14:23;7.60;;;6.18;;
23113;SDS011;11726;50.122;8.832;2023-02-01T02:22:40;8.38;;;6.72;;
23113;SDS011;11726;50.122;8.832;2023-02-01T02:31:32;7.07;;;6.15;;
23113;SDS011;11726;50.122;8.832;2023-02-01T02:34:27;8.63;;;6.53;;
23113;SDS011;11726;50.122;8.832;2023-02-01T02:42:14;10.23;;;7.07;;
23113;SDS011;11726;50.122;8.832;2023-02-01T02:48:17;9.65;;;7.38;;
23113;SDS011;11726;50.122;8.832;2023-02-01T02:51:00;11.00;;;7.88;;
23113;SDS011;11726;50.122;8.832;2023-02-01T02:54:06;8.75;;;6.35;;
23113;SDS011;11726;50.122;8.832;2023-02-01T02:56:56;9.38;;;7.10;;
23113;SDS011;11726;50.122;8.832;2023-02-01T02:59:44;9.40;;;6.72;;
23113;SDS011;11726;50.122;8.832;2023-02-01T03:02:32;9.88;;;6.95;;
23113;SDS011;11726;50.122;8.832;2023-02-01T03:05:19;11.65;;;7.00;;
23113;SDS011;11726;50.122;8.832;2023-02-01T03:10:33;7.00;;;5.90;;
23113;SDS011;11726;50.122;8.832;2023-02-01T03:13:11;7.78;;;6.40;;
23113;SDS011;11726;50.122;8.832;2023-02-01T03:15:51;11.55;;;7.07;;
23113;SDS011;11726;50.122;8.832;2023-02-01T03:18:33;8.25;;;6.13;;
23113;SDS011;11726;50.122;8.832;2023-02-01T03:21:06;9.32;;;6.82;;
23113;SDS011;11726;50.122;8.832;2023-02-01T03:23:36;8.48;;;6.88;;
23113;SDS011;11726;50.122;8.832;2023-02-01T03:26:07;9.93;;;6.72;;
23113;SDS011;11726;50.122;8.832;2023-02-01T03:28:39;10.30;;;6.38;;
23113;SDS011;11726;50.122;8.832;2023-02-01T03:31:11;7.05;;;5.88;;
23113;SDS011;11726;50.122;8.832;2023-02-01T03:33:40;8.45;;;6.53;;
23113;SDS011;11726;50.122;8.832;2023-02-01T03:41:55;10.48;;;7.18;;
23113;SDS011;11726;50.122;8.832;2023-02-01T03:44:25;10.52;;;6.53;;
23113;SDS011;11726;50.122;8.832;2023-02-01T03:46:59;9.15;;;5.80;;
23113;SDS011;11726;50.122;8.832;2023-02-01T03:49:57;7.90;;;5.95;;
23113;SDS011;11726;50.122;8.832;2023-02-01T03:52:48;8.88;;;6.00;;
23113;SDS011;11726;50.122;8.832;2023-02-01T03:55:31;8.55;;;6.00;;
23113;SDS011;11726;50.122;8.832;2023-02-01T03:58:01;8.43;;;5.65;;
23113;SDS011;11726;50.122;8.832;2023-02-01T04:00:55;7.78;;;5.22;;
23113;SDS011;11726;50.122;8.832;2023-02-01T04:03:24;5.32;;;4.30;;
23113;SDS011;11726;50.122;8.832;2023-02-01T04:05:51;5.53;;;3.90;;
23113;SDS011;11726;50.122;8.832;2023-02-01T04:08:19;6.47;;;4.13;;
23113;SDS011;11726;50.122;8.832;2023-02-01T04:10:46;5.45;;;4.13;;
23113;SDS011;11726;50.122;8.832;2023-02-01T04:13:13;5.30;;;3.60;;
23113;SDS011;11726;50.122;8.832;2023-02-01T04:15:39;6.03;;;4.30;;
23113;SDS011;11726;50.122;8.832;2023-02-01T04:18:06;4.85;;;3.75;;
23113;SDS011;11726;50.122;8.832;2023-02-01T04:20:33;5.40;;;4.15;;
23113;SDS011;11726;50.122;8.832;2023-02-01T04:22:59;7.88;;;4.90;;
23113;SDS011;11726;50.122;8.832;2023-02-01T04:25:28;7.60;;;4.90;;
23113;SDS011;11726;50.122;8.832;2023-02-01T04:27:55;6.65;;;4.85;;
23113;SDS011;11726;50.122;8.832;2023-02-01T04:30:22;6.65;;;4.75;;
23113;SDS011;11726;50.122;8.832;2023-02-01T04:32:50;7.35;;;5.15;;
23113;SDS011;11726;50.122;8.832;2023-02-01T04:35:16;12.15;;;7.40;;
23113;SDS011;11726;50.122;8.832;2023-02-01T04:37:43;6.97;;;5.20;;
23113;SDS011;11726;50.122;8.832;2023-02-01T04:40:10;8.38;;;6.05;;
23113;SDS011;11726;50.122;8.832;2023-02-01T04:42:37;7.65;;;5.45;;
23113;SDS011;11726;50.122;8.832;2023-02-01T04:45:04;8.73;;;5.88;;
23113;SDS011;11726;50.122;8.832;2023-02-01T04:47:31;9.13;;;6.72;;
23113;SDS011;11726;50.122;8.832;2023-02-01T04:49:57;12.13;;;7.07;;
23113;SDS011;11726;50.122;8.832;2023-02-01T04:52:24;11.23;;;6.47;;
23113;SDS011;11726;50.122;8.832;2023-02-01T04:54:50;8.75;;;5.90;;
23113;SDS011;11726;50.122;8.832;2023-02-01T04:57:20;10.55;;;6.93;;
23113;SDS011;11726;50.122;8.832;2023-02-01T04:59:46;12.70;;;6.22;;
23113;SDS011;11726;50.122;8.832;2023-02-01T05:02:13;8.95;;;5.85;;
23113;SDS011;11726;50.122;8.832;2023-02-01T05:04:39;7.82;;;6.30;;
23113;SDS011;11726;50.122;8.832;2023-02-01T05:07:06;9.65;;;5.90;;
23113;SDS011;11726;50.122;8.832;2023-02-01T05:09:32;8.38;;;5.60;;
23113;SDS011;11726;50.122;8.832;2023-02-01T05:11:59;9.07;;;6.07;;
23113;SDS011;11726;50.122;8.832;2023-02-01T05:14:44;10.88;;;6.03;;
23113;SDS011;11726;50.122;8.832;2023-02-01T05:17:11;10.18;;;6.00;;
23113;SDS011;11726;50.122;8.832;2023-02-01T05:19:37;9.50;;;5.43;;
23113;SDS011;11726;50.122;8.832;2023-02-01T05:22:04;8.60;;;5.85;;
23113;SDS011;11726;50.122;8.832;2023-02-01T05:24:31;7.90;;;5.10;;
23113;SDS011;11726;50.122;8.832;2023-02-01T05:26:58;9.20;;;5.45;;
23113;SDS011;11726;50.122;8.832;2023-02-01T05:29:25;11.95;;;5.65;;
23113;SDS011;11726;50.122;8.832;2023-02-01T05:31:51;9.90;;;5.45;;
23113;SDS011;11726;50.122;8.832;2023-02-01T05:34:18;10.93;;;5.35;;
23113;SDS011;11726;50.122;8.832;2023-02-01T05:36:45;8.27;;;5.18;;
23113;SDS011;11726;50.122;8.832;2023-02-01T05:39:11;8.40;;;4.85;;
23113;SDS011;11726;50.122;8.832;2023-02-01T05:41:38;9.05;;;4.93;;
23113;SDS011;11726;50.122;8.832;2023-02-01T05:44:04;11.60;;;5.40;;
23113;SDS011;11726;50.122;8.832;2023-02-01T05:46:33;8.30;;;4.72;;
23113;SDS011;11726;50.122;8.832;2023-02-01T05:49:01;11.38;;;4.78;;
23113;SDS011;11726;50.122;8.832;2023-02-01T05:51:28;11.77;;;4.65;;
23113;SDS011;11726;50.122;8.832;2023-02-01T05:53:55;8.63;;;4.50;;
23113;SDS011;11726;50.122;8.832;2023-02-01T05:56:21;9.45;;;4.43;;
23113;SDS011;11726;50.122;8.832;2023-02-01T05:58:48;8.70;;;4.35;;
23113;SDS011;11726;50.122;8.832;2023-02-01T06:01:14;10.90;;;4.80;;
23113;SDS011;11726;50.122;8.832;2023-02-01T06:03:41;7.18;;;3.90;;
23113;SDS011;11726;50.122;8.832;2023-02-01T06:06:07;14.48;;;4.55;;
23113;SDS011;11726;50.122;8.832;2023-02-01T06:08:34;9.93;;;3.85;;
23113;SDS011;11726;50.122;8.832;2023-02-01T06:11:01;7.55;;;3.70;;
23113;SDS011;11726;50.122;8.832;2023-02-01T06:13:30;8.75;;;3.92;;
23113;SDS011;11726;50.122;8.832;2023-02-01T06:16:00;9.18;;;4.32;;
23113;SDS011;11726;50.122;8.832;2023-02-01T06:18:28;7.93;;;4.30;;
23113;SDS011;11726;50.122;8.832;2023-02-01T06:20:56;11.10;;;4.50;;
23113;SDS011;11726;50.122;8.832;2023-02-01T06:23:26;11.95;;;4.40;;
23113;SDS011;11726;50.122;8.832;2023-02-01T06:25:57;11.85;;;4.88;;
23113;SDS011;11726;50.122;8.832;2023-02-01T06:28:27;13.95;;;4.28;;
23113;SDS011;11726;50.122;8.832;2023-02-01T06:30:54;10.18;;;4.45;;
23113;SDS011;11726;50.122;8.832;2023-02-01T06:33:21;8.68;;;4.13;;
23113;SDS011;11726;50.122;8.832;2023-02-01T06:35:48;13.82;;;4.70;;
23113;SDS011;11726;50.122;8.832;2023-02-01T06:38:14;9.10;;;4.03;;
23113;SDS011;11726;50.122;8.832;2023-02-01T06:40:41;12.77;;;4.90;;
23113;SDS011;11726;50.122;8.832;2023-02-01T06:43:08;12.15;;;4.43;;
23113;SDS011;11726;50.122;8.832;2023-02-01T06:45:34;11.55;;;4.75;;
23113;SDS011;11726;50.122;8.832;2023-02-01T06:48:01;12.32;;;4.78;;
23113;SDS011;11726;50.122;8.832;2023-02-01T06:50:28;13.85;;;5.07;;
23113;SDS011;11726;50.122;8.832;2023-02-01T06:52:54;14.82;;;5.15;;
23113;SDS011;11726;50.122;8.832;2023-02-01T06:55:21;11.10;;;4.40;;
23113;SDS011;11726;50.122;8.832;2023-02-01T06:57:48;12.43;;;4.07;;
23113;SDS011;11726;50.122;8.832;2023-02-01T07:00:18;12.90;;;4.40;;
23113;SDS011;11726;50.122;8.832;2023-02-01T07:02:45;12.35;;;3.80;;
23113;SDS011;11726;50.122;8.832;2023-02-01T07:05:12;10.65;;;3.70;;
23113;SDS011;11726;50.122;8.832;2023-02-01T07:07:38;8.30;;;3.55;;
23113;SDS011;11726;50.122;8.832;2023-02-01T07:10:05;9.27;;;3.35;;
23113;SDS011;11726;50.122;8.832;2023-02-01T07:12:32;11.85;;;3.63;;
23113;SDS011;11726;50.122;8.832;2023-02-01T07:14:58;9.05;;;3.10;;
23113;SDS011;11726;50.122;8.832;2023-02-01T07:17:25;10.65;;;3.40;;
23113;SDS011;11726;50.122;8.832;2023-02-01T07:19:52;10.70;;;3.13;;
23113;SDS011;11726;50.122;8.832;2023-02-01T07:22:18;10.95;;;3.17;;
23113;SDS011;11726;50.122;8.832;2023-02-01T07:24:45;9.45;;;3.15;;
23113;SDS011;11726;50.122;8.832;2023-02-01T07:27:11;10.82;;;3.53;;
23113;SDS011;11726;50.122;8.832;2023-02-01T07:29:38;10.77;;;3.00;;
23113;SDS011;11726;50.122;8.832;2023-02-01T07:32:05;10.18;;;3.45;;
23113;SDS011;11726;50.122;8.832;2023-02-01T07:34:31;14.57;;;3.20;;
23113;SDS011;11726;50.122;8.832;2023-02-01T07:36:58;12.00;;;3.58;;
23113;SDS011;11726;50.122;8.832;2023-02-01T07:39:25;11.88;;;3.47;;
23113;SDS011;11726;50.122;8.832;2023-02-01T07:41:54;7.95;;;2.72;;
23113;SDS011;11726;50.122;8.832;2023-02-01T07:44:22;9.50;;;3.15;;
23113;SDS011;11726;50.122;8.832;2023-02-01T07:46:49;9.55;;;2.95;;
23113;SDS011;11726;50.122;8.832;2023-02-01T07:49:16;8.43;;;3.15;;
23113;SDS011;11726;50.122;8.832;2023-02-01T07:51:43;9.05;;;2.90;;
23113;SDS011;11726;50.122;8.832;2023-02-01T07:54:10;8.02;;;3.05;;
23113;SDS011;11726;50.122;8.832;2023-02-01T07:56:37;12.30;;;3.33;;
23113;SDS011;11726;50.122;8.832;2023-02-01T07:59:03;12.32;;;3.60;;
23113;SDS011;11726;50.122;8.832;2023-02-01T08:01:30;12.35;;;3.65;;
23113;SDS011;11726;50.122;8.832;2023-02-01T08:03:57;10.68;;;3.17;;
23113;SDS011;11726;50.122;8.832;2023-02-01T08:06:25;12.32;;;3.35;;
23113;SDS011;11726;50.122;8.832;2023-02-01T08:08:53;12.95;;;3.72;;
23113;SDS011;11726;50.122;8.832;2023-02-01T08:11:21;10.38;;;3.20;;
23113;SDS011;11726;50.122;8.832;2023-02-01T08:13:49;12.10;;;3.83;;
23113;SDS011;11726;50.122;8.832;2023-02-01T08:16:16;16.08;;;3.10;;
23113;SDS011;11726;50.122;8.832;2023-02-01T08:18:45;13.82;;;3.10;;
23113;SDS011;11726;50.122;8.832;2023-02-01T08:21:19;11.88;;;3.47;;
23113;SDS011;11726;50.122;8.832;2023-02-01T08:23:48;10.95;;;3.20;;
23113;SDS011;11726;50.122;8.832;2023-02-01T08:26:19;12.55;;;3.58;;
23113;SDS011;11726;50.122;8.832;2023-02-01T08:28:49;12.63;;;3.47;;
23113;SDS011;11726;50.122;8.832;2023-02-01T08:31:23;7.30;;;2.60;;
23113;SDS011;11726;50.122;8.832;2023-02-01T08:33:52;10.55;;;3.00;;
23113;SDS011;11726;50.122;8.832;2023-02-01T08:36:21;12.13;;;3.35;;
23113;SDS011;11726;50.122;8.832;2023-02-01T08:38:49;13.68;;;3.20;;
23113;SDS011;11726;50.122;8.832;2023-02-01T08:41:17;13.27;;;3.25;;
23113;SDS011;11726;50.122;8.832;2023-02-01T08:43:46;11.05;;;2.80;;
23113;SDS011;11726;50.122;8.832;2023-02-01T08:46:14;13.05;;;3.47;;
23113;SDS011;11726;50.122;8.832;2023-02-01T08:48:41;10.40;;;3.10;;
23113;SDS011;11726;50.122;8.832;2023-02-01T08:51:09;14.18;;;3.42;;
23113;SDS011;11726;50.122;8.832;2023-02-01T08:53:37;9.90;;;2.65;;
23113;SDS011;11726;50.122;8.832;2023-02-01T08:56:07;13.10;;;3.20;;
23113;SDS011;11726;50.122;8.832;2023-02-01T08:58:35;13.40;;;3.20;;
23113;SDS011;11726;50.122;8.832;2023-02-01T09:01:11;10.77;;;3.00;;
23113;SDS011;11726;50.122;8.832;2023-02-01T09:03:40;11.80;;;3.28;;
23113;SDS011;11726;50.122;8.832;2023-02-01T09:06:08;13.77;;;3.13;;
23113;SDS011;11726;50.122;8.832;2023-02-01T09:08:36;7.97;;;3.30;;
23113;SDS011;11726;50.122;8.832;2023-02-01T09:11:07;13.43;;;3.28;;
23113;SDS011;11726;50.122;8.832;2023-02-01T09:13:36;13.98;;;3.60;;
23113;SDS011;11726;50.122;8.832;2023-02-01T09:16:03;13.32;;;3.42;;
23113;SDS011;11726;50.122;8.832;2023-02-01T09:18:30;11.38;;;3.47;;
23113;SDS011;11726;50.122;8.832;2023-02-01T09:20:57;16.23;;;3.63;;
23113;SDS011;11726;50.122;8.832;2023-02-01T09:23:24;14.35;;;3.47;;
23113;SDS011;11726;50.122;8.832;2023-02-01T09:25:50;13.65;;;4.22;;
23113;SDS011;11726;50.122;8.832;2023-02-01T09:28:17;13.45;;;3.35;;
23113;SDS011;11726;50.122;8.832;2023-02-01T09:30:44;11.63;;;3.08;;
23113;SDS011;11726;50.122;8.832;2023-02-01T09:33:12;16.10;;;3.05;;
23113;SDS011;11726;50.122;8.832;2023-02-01T09:35:38;12.63;;;3.80;;
23113;SDS011;11726;50.122;8.832;2023-02-01T09:38:05;13.65;;;3.30;;
23113;SDS011;11726;50.122;8.832;2023-02-01T09:40:33;12.63;;;3.38;;
23113;SDS011;11726;50.122;8.832;2023-02-01T09:46:04;13.27;;;4.15;;
23113;SDS011;11726;50.122;8.832;2023-02-01T09:49:08;12.88;;;3.78;;
23113;SDS011;11726;50.122;8.832;2023-02-01T09:51:42;15.38;;;3.53;;
23113;SDS011;11726;50.122;8.832;2023-02-01T09:57:26;14.45;;;2.95;;
23113;SDS011;11726;50.122;8.832;2023-02-01T10:00:03;14.63;;;3.95;;
23113;SDS011;11726;50.122;8.832;2023-02-01T10:02:34;16.20;;;3.25;;
23113;SDS011;11726;50.122;8.832;2023-02-01T10:05:05;11.75;;;3.63;;
23113;SDS011;11726;50.122;8.832;2023-02-01T10:10:21;14.13;;;3.50;;
23113;SDS011;11726;50.122;8.832;2023-02-01T10:15:52;13.90;;;3.97;;
23113;SDS011;11726;50.122;8.832;2023-02-01T10:26:23;11.40;;;3.60;;
23113;SDS011;11726;50.122;8.832;2023-02-01T10:28:53;10.13;;;2.90;;
23113;SDS011;11726;50.122;8.832;2023-02-01T10:31:24;14.30;;;2.97;;
23113;SDS011;11726;50.122;8.832;2023-02-01T10:33:58;8.25;;;3.17;;
23113;SDS011;11726;50.122;8.832;2023-02-01T10:36:47;11.68;;;3.00;;
23113;SDS011;11726;50.122;8.832;2023-02-01T10:39:19;11.82;;;3.65;;
23113;SDS011;11726;50.122;8.832;2023-02-01T10:41:46;11.88;;;3.08;;
23113;SDS011;11726;50.122;8.832;2023-02-01T10:44:15;14.15;;;3.08;;
23113;SDS011;11726;50.122;8.832;2023-02-01T10:46:45;11.07;;;2.97;;
23113;SDS011;11726;50.122;8.832;2023-02-01T10:49:17;12.43;;;2.90;;
23113;SDS011;11726;50.122;8.832;2023-02-01T10:52:12;9.80;;;2.67;;
23113;SDS011;11726;50.122;8.832;2023-02-01T10:54:43;10.32;;;3.55;;
23113;SDS011;11726;50.122;8.832;2023-02-01T10:57:11;12.55;;;3.28;;
23113;SDS011;11726;50.122;8.832;2023-02-01T10:59:47;10.07;;;3.38;;
23113;SDS011;11726;50.122;8.832;2023-02-01T11:02:30;13.25;;;3.05;;
23113;SDS011;11726;50.122;8.832;2023-02-01T11:05:07;10.93;;;2.80;;
23113;SDS011;11726;50.122;8.832;2023-02-01T11:07:38;11.85;;;2.85;;
23113;SDS011;11726;50.122;8.832;2023-02-01T11:13:02;11.35;;;2.92;;
23113;SDS011;11726;50.122;8.832;2023-02-01T11:15:30;10.30;;;2.80;;
23113;SDS011;11726;50.122;8.832;2023-02-01T11:17:56;11.23;;;2.83;;
23113;SDS011;11726;50.122;8.832;2023-02-01T11:20:40;12.07;;;3.05;;
23113;SDS011;11726;50.122;8.832;2023-02-01T11:23:13;11.18;;;2.67;;
23113;SDS011;11726;50.122;8.832;2023-02-01T11:25:49;14.07;;;2.45;;
23113;SDS011;11726;50.122;8.832;2023-02-01T11:28:21;14.77;;;4.00;;
23113;SDS011;11726;50.122;8.832;2023-02-01T11:30:53;12.13;;;2.90;;
23113;SDS011;11726;50.122;8.832;2023-02-01T11:33:24;14.05;;;3.35;;
23113;SDS011;11726;50.122;8.832;2023-02-01T11:35:56;11.73;;;3.55;;
23113;SDS011;11726;50.122;8.832;2023-02-01T11:40:54;13.23;;;2.70;;
23113;SDS011;11726;50.122;8.832;2023-02-01T11:45:55;12.65;;;2.75;;
23113;SDS011;11726;50.122;8.832;2023-02-01T11:48:25;15.70;;;3.00;;
23113;SDS011;11726;50.122;8.832;2023-02-01T11:51:04;10.48;;;2.78;;
23113;SDS011;11726;50.122;8.832;2023-02-01T11:54:10;14.63;;;3.35;;
23113;SDS011;11726;50.122;8.832;2023-02-01T11:57:07;13.30;;;3.30;;
23113;SDS011;11726;50.122;8.832;2023-02-01T12:05:41;17.15;;;3.28;;
23113;SDS011;11726;50.122;8.832;2023-02-01T12:13:57;13.13;;;2.92;;
23113;SDS011;11726;50.122;8.832;2023-02-01T12:16:52;16.95;;;3.13;;
23113;SDS011;11726;50.122;8.832;2023-02-01T12:22:54;15.52;;;2.78;;
23113;SDS011;11726;50.122;8.832;2023-02-01T12:37:25;13.68;;;3.00;;
23113;SDS011;11726;50.122;8.832;2023-02-01T12:43:17;12.40;;;2.78;;
23113;SDS011;11726;50.122;8.832;2023-02-01T12:45:52;16.15;;;2.70;;
23113;SDS011;11726;50.122;8.832;2023-02-01T12:48:35;13.40;;;2.67;;
23113;SDS011;11726;50.122;8.832;2023-02-01T12:51:12;11.73;;;3.10;;
23113;SDS011;11726;50.122;8.832;2023-02-01T12:53:45;15.90;;;3.15;;
23113;SDS011;11726;50.122;8.832;2023-02-01T12:56:14;16.58;;;2.63;;
23113;SDS011;11726;50.122;8.832;2023-02-01T12:58:48;10.93;;;2.75;;
23113;SDS011;11726;50.122;8.832;2023-02-01T13:01:22;15.80;;;3.30;;
23113;SDS011;11726;50.122;8.832;2023-02-01T13:06:35;16.98;;;3.03;;
23113;SDS011;11726;50.122;8.832;2023-02-01T13:09:20;16.70;;;3.30;;
23113;SDS011;11726;50.122;8.832;2023-02-01T13:11:57;16.58;;;3.33;;
23113;SDS011;11726;50.122;8.832;2023-02-01T13:14:35;12.98;;;2.90;;
23113;SDS011;11726;50.122;8.832;2023-02-01T13:17:25;13.25;;;3.50;;
23113;SDS011;11726;50.122;8.832;2023-02-01T13:20:16;10.27;;;2.80;;
23113;SDS011;11726;50.122;8.832;2023-02-01T13:23:18;17.67;;;3.25;;
23113;SDS011;11726;50.122;8.832;2023-02-01T13:25:53;14.75;;;2.97;;
23113;SDS011;11726;50.122;8.832;2023-02-01T13:37:04;13.85;;;2.72;;
23113;SDS011;11726;50.122;8.832;2023-02-01T13:42:33;13.02;;;3.00;;
23113;SDS011;11726;50.122;8.832;2023-02-01T13:45:02;11.23;;;2.92;;
23113;SDS011;11726;50.122;8.832;2023-02-01T13:47:32;13.50;;;3.45;;
23113;SDS011;11726;50.122;8.832;2023-02-01T13:52:55;12.73;;;3.17;;
23113;SDS011;11726;50.122;8.832;2023-02-01T13:57:58;13.32;;;4.55;;
23113;SDS011;11726;50.122;8.832;2023-02-01T14:00:37;12.68;;;2.60;;
23113;SDS011;11726;50.122;8.832;2023-02-01T14:21:18;11.98;;;2.83;;
23113;SDS011;11726;50.122;8.832;2023-02-01T14:26:19;11.80;;;2.25;;
23113;SDS011;11726;50.122;8.832;2023-02-01T14:32:03;12.55;;;2.60;;
23113;SDS011;11726;50.122;8.832;2023-02-01T14:36:55;13.02;;;2.72;;
23113;SDS011;11726;50.122;8.832;2023-02-01T14:39:26;10.82;;;2.10;;
23113;SDS011;11726;50.122;8.832;2023-02-01T14:42:19;10.60;;;2.47;;
23113;SDS011;11726;50.122;8.832;2023-02-01T14:44:50;11.55;;;2.67;;
23113;SDS011;11726;50.122;8.832;2023-02-01T14:49:54;11.88;;;2.58;;
23113;SDS011;11726;50.122;8.832;2023-02-01T14:52:39;9.95;;;2.30;;
23113;SDS011;11726;50.122;8.832;2023-02-01T14:55:11;11.77;;;2.60;;
23113;SDS011;11726;50.122;8.832;2023-02-01T14:57:55;15.50;;;2.67;;
23113;SDS011;11726;50.122;8.832;2023-02-01T15:00:27;12.55;;;2.78;;
23113;SDS011;11726;50.122;8.832;2023-02-01T15:03:13;12.95;;;2.40;;
23113;SDS011;11726;50.122;8.832;2023-02-01T15:06:00;10.93;;;2.60;;
23113;SDS011;11726;50.122;8.832;2023-02-01T15:08:30;8.70;;;2.20;;
23113;SDS011;11726;50.122;8.832;2023-02-01T15:11:10;12.32;;;2.28;;
23113;SDS011;11726;50.122;8.832;2023-02-01T15:13:40;12.60;;;2.47;;
23113;SDS011;11726;50.122;8.832;2023-02-01T15:16:14;12.85;;;2.47;;
23113;SDS011;11726;50.122;8.832;2023-02-01T15:18:42;13.68;;;2.25;;
23113;SDS011;11726;50.122;8.832;2023-02-01T15:21:19;14.18;;;2.33;;
23113;SDS011;11726;50.122;8.832;2023-02-01T15:24:09;10.10;;;2.30;;
23113;SDS011;11726;50.122;8.832;2023-02-01T15:26:37;14.38;;;2.72;;
23113;SDS011;11726;50.122;8.832;2023-02-01T15:29:04;11.40;;;2.50;;
23113;SDS011;11726;50.122;8.832;2023-02-01T15:31:32;10.43;;;2.47;;
23113;SDS011;11726;50.122;8.832;2023-02-01T15:34:02;12.32;;;2.47;;
23113;SDS011;11726;50.122;8.832;2023-02-01T15:36:29;13.38;;;2.60;;
23113;SDS011;11726;50.122;8.832;2023-02-01T15:39:16;13.13;;;2.95;;
23113;SDS011;11726;50.122;8.832;2023-02-01T15:41:51;12.02;;;2.70;;
23113;SDS011;11726;50.122;8.832;2023-02-01T15:44:30;10.82;;;1.98;;
23113;SDS011;11726;50.122;8.832;2023-02-01T15:47:15;12.95;;;3.78;;
23113;SDS011;11726;50.122;8.832;2023-02-01T15:49:47;22.42;;;4.53;;
23113;SDS011;11726;50.122;8.832;2023-02-01T15:52:21;15.98;;;4.95;;
23113;SDS011;11726;50.122;8.832;2023-02-01T15:54:59;16.95;;;5.82;;
23113;SDS011;11726;50.122;8.832;2023-02-01T15:57:29;18.88;;;5.20;;
23113;SDS011;11726;50.122;8.832;2023-02-01T16:00:03;12.23;;;4.60;;
23113;SDS011;11726;50.122;8.832;2023-02-01T16:02:34;15.63;;;4.70;;
23113;SDS011;11726;50.122;8.832;2023-02-01T16:05:25;14.13;;;4.45;;
23113;SDS011;11726;50.122;8.832;2023-02-01T16:08:23;16.27;;;3.63;;
23113;SDS011;11726;50.122;8.832;2023-02-01T16:10:54;15.20;;;4.18;;
23113;SDS011;11726;50.122;8.832;2023-02-01T16:13:27;9.52;;;2.63;;
23113;SDS011;11726;50.122;8.832;2023-02-01T16:15:54;9.80;;;3.10;;
23113;SDS011;11726;50.122;8.832;2023-02-01T16:18:20;9.00;;;2.72;;
23113;SDS011;11726;50.122;8.832;2023-02-01T16:20:47;12.25;;;2.95;;
23113;SDS011;11726;50.122;8.832;2023-02-01T16:23:14;11.55;;;3.45;;
23113;SDS011;11726;50.122;8.832;2023-02-01T16:25:41;13.90;;;3.58;;
23113;SDS011;11726;50.122;8.832;2023-02-01T16:28:08;14.00;;;4.18;;
23113;SDS011;11726;50.122;8.832;2023-02-01T16:30:34;13.48;;;3.60;;
23113;SDS011;11726;50.122;8.832;2023-02-01T16:33:02;10.15;;;2.65;;
23113;SDS011;11726;50.122;8.832;2023-02-01T16:35:34;15.05;;;2.90;;
23113;SDS011;11726;50.122;8.832;2023-02-01T16:38:08;14.55;;;3.72;;
23113;SDS011;11726;50.122;8.832;2023-02-01T16:40:42;8.75;;;2.65;;
23113;SDS011;11726;50.122;8.832;2023-02-01T16:43:13;11.25;;;2.83;;
23113;SDS011;11726;50.122;8.832;2023-02-01T16:45:48;8.93;;;2.90;;
23113;SDS011;11726;50.122;8.832;2023-02-01T16:50:50;9.35;;;2.38;;
23113;SDS011;11726;50.122;8.832;2023-02-01T16:53:19;9.10;;;2.30;;
23113;SDS011;11726;50.122;8.832;2023-02-01T16:55:47;11.27;;;2.70;;
23113;SDS011;11726;50.122;8.832;2023-02-01T16:58:19;7.80;;;2.22;;
23113;SDS011;11726;50.122;8.832;2023-02-01T17:00:46;12.77;;;3.45;;
23113;SDS011;11726;50.122;8.832;2023-02-01T17:03:14;11.43;;;2.80;;
23113;SDS011;11726;50.122;8.832;2023-02-01T17:05:45;17.65;;;4.70;;
23113;SDS011;11726;50.122;8.832;2023-02-01T17:08:17;9.35;;;3.30;;
23113;SDS011;11726;50.122;8.832;2023-02-01T17:10:52;10.98;;;2.60;;
23113;SDS011;11726;50.122;8.832;2023-02-01T17:13:19;9.05;;;2.47;;
23113;SDS011;11726;50.122;8.832;2023-02-01T17:15:50;15.18;;;2.90;;
23113;SDS011;11726;50.122;8.832;2023-02-01T17:18:20;12.82;;;3.00;;
23113;SDS011;11726;50.122;8.832;2023-02-01T17:20:47;13.88;;;3.80;;
23113;SDS011;11726;50.122;8.832;2023-02-01T17:23:18;10.50;;;2.53;;
23113;SDS011;11726;50.122;8.832;2023-02-01T17:25:45;12.70;;;2.75;;